Aviation Digital Data Service (ADDS)

Output produced by METARs form (1321 UTC 21 August 2019)
found at http://www.aviationweather.gov/metar/data/
 
Forecast for: HLLB (BENINA/BENGHAZI , LY)
Text: TAF HLLB 211100Z 2112/2212 36012G22KT 8000 FEW020
Forecast period: 1200 to 1800 UTC 21 August 2019
Forecast type: FROM: standard forecast or significant change
Winds: from the N (360 degrees) at 14 MPH (12 knots; 6.2 m/s)
gusting to 25 MPH (22 knots; 11.3 m/s)
Visibility: 5 miles (8 km)
Ceiling: at least 12,000 feet AGL
Clouds: few clouds at 2000 feet AGL
Weather: no significant weather forecast for this period
Text: BECMG 2118/2120 06014KT 8000 NSC
Forecast period: 1800 UTC 21 August 2019 to 1200 UTC 22 August 2019
Forecast type: BECOMING: Conditions expected to become as follows by 2000 UTC 21 August 2019
Winds: from the ENE (60 degrees) at 16 MPH (14 knots; 7.2 m/s)
Visibility: 5 miles (8 km)
Ceiling: unknown
Clouds: missing
Weather: no significant weather forecast for this period